Colonia Pastoril, Argentina
Current Conditions -  °F | °C
As of 6:00 AM on Monday 20 Oct 2014 (Local Time) from SARF Reporting Station
Few Clouds Few Clouds  
Wind Chill: 70°   Ceiling: Unl
Heat Index: 70°   Visibility: 6mi
Dew Point: 68°   Wind: 9mph
Humidity: 94%   Direction: 180°S
Pressure: 29.97"   Gusts: NA
Location:  26.14°S, 58.39°W
Report Text: SARF 200900Z 18008KT 9999 FEW008 21/20 Q1015
Loading
Personal Weather Stations






























Interactive Weather Map
Tropical Storm Tracking
New forecast layout! Learn more

10-Day Weather Forecast

Advertisements
Track Severe Weather on mobile